createdAt,value
2024-04-06T00:01:54.883Z,51205.79
2024-04-06T00:04:22.821Z,51230.59
2024-04-06T00:06:50.838Z,51236.50
2024-04-06T00:09:18.434Z,51236.10
2024-04-06T00:11:46.011Z,51225.47
2024-04-06T00:14:15.120Z,51223.90
2024-04-06T00:16:42.535Z,51232.55
2024-04-06T00:19:09.955Z,51235.32
2024-04-06T00:21:37.427Z,51225.87
2024-04-06T00:24:06.095Z,51233.35
2024-04-06T00:26:33.472Z,51227.83
2024-04-06T00:29:01.241Z,51245.55
2024-04-06T00:31:28.765Z,51228.23
2024-04-06T00:33:58.055Z,51229.80
2024-04-06T00:36:25.584Z,51238.86
2024-04-06T00:38:52.996Z,51226.26
2024-04-06T00:41:20.492Z,51233.74
2024-04-06T00:43:47.905Z,51237.29
2024-04-06T00:46:15.392Z,51205.79
2024-04-06T00:48:42.838Z,51239.25
2024-04-06T00:51:10.218Z,51232.56
2024-04-06T00:53:37.934Z,51225.87
2024-04-06T00:56:05.710Z,51217.60
2024-04-06T00:58:33.107Z,51219.57
2024-04-06T01:01:00.618Z,51249.88
2024-04-06T01:03:28.037Z,51232.96
2024-04-06T01:05:55.468Z,51214.05
2024-04-06T01:08:23.006Z,51235.71
2024-04-06T01:10:50.433Z,51237.68
2024-04-06T01:13:17.874Z,51227.44
2024-04-06T01:15:46.231Z,51239.64
2024-04-06T01:18:13.685Z,51227.44
2024-04-06T01:20:44.890Z,51234.13
2024-04-06T01:23:13.437Z,51245.16
2024-04-06T01:25:41.088Z,51240.04
2024-04-06T01:28:08.513Z,51229.80
2024-04-06T01:30:37.517Z,51231.77
2024-04-06T01:33:05.067Z,51243.19
2024-04-06T01:35:32.456Z,51232.17
2024-04-06T01:37:59.884Z,51241.23
2024-04-06T01:40:28.827Z,51243.98
2024-04-06T01:42:56.789Z,51233.35
2024-04-06T01:45:24.198Z,51232.95
2024-04-06T01:47:51.604Z,51238.86
2024-04-06T01:50:19.158Z,51222.32
2024-04-06T01:52:46.554Z,51228.63
2024-04-06T01:55:14.220Z,51232.56
2024-04-06T01:57:41.721Z,51218.39
2024-04-06T02:00:09.730Z,51234.92
2024-04-06T02:02:40.301Z,51223.11
2024-04-06T02:05:07.850Z,51241.23
2024-04-06T02:07:35.287Z,51217.99
2024-04-06T02:10:02.746Z,51212.88
2024-04-06T02:12:30.277Z,51238.07
2024-04-06T02:14:57.895Z,51244.37
2024-04-06T02:17:25.934Z,51240.43
2024-04-06T02:19:53.466Z,51240.43
2024-04-06T02:22:20.882Z,51242.01
2024-04-06T02:24:48.285Z,51230.20
2024-04-06T02:27:15.802Z,51232.96
2024-04-06T02:29:43.212Z,51250.28
2024-04-06T02:32:10.602Z,51232.95
2024-04-06T02:34:38.050Z,51242.41
2024-04-06T02:37:05.575Z,51230.98
2024-04-06T02:39:33.186Z,51237.28
2024-04-06T02:42:00.577Z,51236.89
2024-04-06T02:44:28.175Z,51244.77
2024-04-06T02:46:55.711Z,51231.38
2024-04-06T02:49:23.131Z,51238.86
2024-04-06T02:51:50.527Z,51235.71
2024-04-06T02:54:17.993Z,51245.16
2024-04-06T02:56:45.489Z,51243.59
2024-04-06T02:59:12.965Z,51249.10
2024-04-06T03:01:40.429Z,51248.31
2024-04-06T03:04:07.893Z,51243.19
2024-04-06T03:06:35.340Z,51245.16
2024-04-06T03:09:02.854Z,51244.76
2024-04-06T03:11:30.624Z,51257.36
2024-04-06T03:13:58.125Z,51238.46
2024-04-06T03:16:25.677Z,51241.62
2024-04-06T03:18:53.140Z,51239.25
2024-04-06T03:21:22.181Z,51236.89
2024-04-06T03:23:49.812Z,51237.68
2024-04-06T03:26:17.348Z,51243.19
2024-04-06T03:28:44.871Z,51230.59
2024-04-06T03:31:12.446Z,51239.25
2024-04-06T03:33:39.830Z,51240.83
2024-04-06T03:36:07.353Z,51233.35
2024-04-06T03:38:34.747Z,51248.70
2024-04-06T03:41:02.217Z,51245.95
2024-04-06T03:43:29.677Z,51225.48
2024-04-06T03:45:57.030Z,51234.92
2024-04-06T03:48:24.569Z,51226.66
2024-04-06T03:50:52.038Z,51203.04
2024-04-06T03:53:38.107Z,51221.93
2024-04-06T03:56:06.241Z,51203.04
2024-04-06T03:58:33.912Z,51186.89
2024-04-06T04:02:47.205Z,51173.51
2024-04-06T04:05:14.672Z,51165.63
2024-04-06T04:07:42.218Z,51166.02
2024-04-06T04:10:09.775Z,51156.18
2024-04-06T04:12:37.279Z,51156.97
2024-04-06T04:15:08.800Z,51123.90
2024-04-06T04:17:36.336Z,51126.66
2024-04-06T04:20:07.257Z,51110.52
2024-04-06T04:22:34.868Z,51102.25
2024-04-06T04:25:02.395Z,51100.28
2024-04-06T04:27:31.641Z,51098.71
2024-04-06T04:29:59.335Z,51068.39
2024-04-06T04:32:27.005Z,51077.84
2024-04-06T04:34:54.415Z,51073.51
2024-04-06T04:37:21.853Z,51068.39
2024-04-06T04:39:49.266Z,51061.70
2024-04-06T04:42:16.773Z,51053.43
2024-04-06T04:44:49.811Z,51054.62
2024-04-06T04:47:26.115Z,51046.74
2024-04-06T04:49:53.522Z,51047.53
2024-04-06T04:52:21.034Z,51062.09
2024-04-06T04:54:48.428Z,51076.27
2024-04-06T04:57:15.859Z,51064.46
2024-04-06T04:59:43.361Z,51035.72
2024-04-06T05:02:10.875Z,51061.70
2024-04-06T05:04:38.249Z,51062.88
2024-04-06T05:07:05.680Z,51048.32
2024-04-06T05:09:33.093Z,51050.68
2024-04-06T05:12:00.601Z,51028.24
2024-04-06T05:14:29.353Z,51021.55
2024-04-06T05:16:56.759Z,51011.71
2024-04-06T05:19:24.759Z,51006.20
2024-04-06T05:21:52.246Z,51005.41
2024-04-06T05:24:20.159Z,50994.77
2024-04-06T05:26:47.831Z,51000.29
2024-04-06T05:29:15.225Z,50969.98
2024-04-06T05:31:42.622Z,50976.67
2024-04-06T05:34:10.037Z,50981.39
2024-04-06T05:36:37.460Z,50979.82
2024-04-06T05:39:06.619Z,50952.27
2024-04-06T05:41:34.026Z,50959.74
2024-04-06T05:44:04.012Z,50958.17
2024-04-06T05:46:33.034Z,50955.80
2024-04-06T05:49:01.643Z,50926.68
2024-04-06T05:51:29.263Z,50934.55
2024-04-06T05:53:56.788Z,50947.93
2024-04-06T05:56:24.299Z,50932.97
2024-04-06T05:58:51.717Z,50924.31
2024-04-06T06:01:19.264Z,50936.91
2024-04-06T06:03:46.740Z,50941.63
2024-04-06T06:06:15.097Z,50948.72
2024-04-06T06:08:42.489Z,50946.36
2024-04-06T06:11:09.917Z,50944.39
2024-04-06T06:13:37.356Z,50940.46
2024-04-06T06:16:05.084Z,50949.90
2024-04-06T06:18:32.554Z,50946.36
2024-04-06T06:21:04.592Z,50931.00
2024-04-06T06:23:32.113Z,50936.13
2024-04-06T06:25:59.714Z,50949.11
2024-04-06T06:28:27.274Z,50947.54
2024-04-06T06:30:54.812Z,50968.01
2024-04-06T06:33:22.667Z,50966.43
2024-04-06T06:38:26.893Z,50973.91
2024-04-06T06:40:55.115Z,50981.79
2024-04-06T06:43:22.626Z,50970.37
2024-04-06T06:45:50.073Z,50960.92
2024-04-06T06:48:17.447Z,50968.01
2024-04-06T06:50:45.242Z,50948.72
2024-04-06T06:53:12.607Z,50960.53
2024-04-06T06:55:40.038Z,50966.43
2024-04-06T06:58:07.577Z,50937.70
2024-04-06T07:00:37.289Z,50947.14
2024-04-06T07:03:05.383Z,50939.66
2024-04-06T07:05:32.764Z,50939.66
2024-04-06T07:08:00.204Z,50959.35
2024-04-06T07:10:27.608Z,50959.74
2024-04-06T07:12:55.115Z,50940.84
2024-04-06T07:15:22.499Z,50929.82
2024-04-06T07:17:50.082Z,50934.15
2024-04-06T07:20:17.556Z,50937.70
2024-04-06T07:22:45.006Z,50926.28
2024-04-06T07:25:12.831Z,50905.42
2024-04-06T07:27:40.478Z,50911.32
2024-04-06T07:30:08.189Z,50919.98
2024-04-06T07:32:35.781Z,50909.74
2024-04-06T07:35:03.788Z,50931.79
2024-04-06T07:37:31.564Z,50917.62
2024-04-06T07:39:59.021Z,50921.95
2024-04-06T07:42:26.638Z,50912.11
2024-04-06T07:44:54.115Z,50913.29
2024-04-06T07:47:21.591Z,50898.33
2024-04-06T07:49:49.044Z,50914.86
2024-04-06T07:52:16.439Z,50915.26
2024-04-06T07:54:43.857Z,50912.50
2024-04-06T07:57:11.323Z,50930.61
2024-04-06T07:59:38.832Z,50932.58
2024-04-06T08:02:06.428Z,50935.34
2024-04-06T08:04:33.971Z,50927.46
2024-04-06T08:07:03.697Z,50929.04
2024-04-06T08:09:32.030Z,50955.41
2024-04-06T08:11:59.685Z,50947.15
2024-04-06T08:14:27.092Z,50971.55
2024-04-06T08:16:54.602Z,50968.79
2024-04-06T08:19:22.048Z,50966.83
2024-04-06T08:21:49.558Z,50975.88
2024-04-06T08:24:18.268Z,50982.18
2024-04-06T08:26:46.412Z,50971.16
2024-04-06T08:29:14.241Z,50983.75
2024-04-06T08:31:41.790Z,50979.43
2024-04-06T08:34:09.620Z,50990.05
2024-04-06T08:36:37.328Z,50965.25
2024-04-06T08:39:05.565Z,50958.95
2024-04-06T08:41:33.007Z,50980.21
2024-04-06T08:44:01.419Z,50964.47
2024-04-06T08:46:28.946Z,50980.61
2024-04-06T08:48:56.420Z,50978.64
2024-04-06T08:51:24.926Z,50975.49
2024-04-06T08:53:52.357Z,50975.09
2024-04-06T08:56:19.876Z,50969.19
2024-04-06T08:58:48.164Z,50964.07
2024-04-06T09:01:15.853Z,50959.35
2024-04-06T09:03:43.386Z,50961.32
2024-04-06T09:06:19.522Z,50979.03
2024-04-06T09:08:47.563Z,50970.77
2024-04-06T09:11:15.079Z,50972.73
2024-04-06T09:13:43.504Z,50981.79
2024-04-06T09:16:11.295Z,50982.97
2024-04-06T09:18:39.958Z,50981.00
2024-04-06T09:21:07.512Z,50977.46
2024-04-06T09:23:35.512Z,50966.83
2024-04-06T09:26:03.813Z,50980.21
2024-04-06T09:28:34.138Z,50966.43
2024-04-06T09:31:01.701Z,50946.36
2024-04-06T09:33:29.138Z,50963.28
2024-04-06T09:35:56.590Z,50978.24
2024-04-06T09:38:26.022Z,50971.16
2024-04-06T09:40:53.728Z,50988.09
2024-04-06T09:43:21.233Z,51001.07
2024-04-06T09:45:48.745Z,50989.27
2024-04-06T09:48:16.321Z,50956.98
2024-04-06T09:50:44.187Z,50975.49
2024-04-06T09:53:13.705Z,50975.49
2024-04-06T09:55:41.783Z,50953.05
2024-04-06T09:58:10.005Z,50966.43
2024-04-06T10:00:37.646Z,50947.54
2024-04-06T10:03:06.068Z,50943.20
2024-04-06T10:05:43.930Z,50945.96
2024-04-06T10:08:24.181Z,50950.29
2024-04-06T10:10:53.354Z,50932.97
2024-04-06T10:13:21.692Z,50933.37
2024-04-06T10:15:49.170Z,50919.59
2024-04-06T10:18:17.036Z,50918.01
2024-04-06T10:20:44.593Z,50918.80
2024-04-06T10:23:14.051Z,50927.07
2024-04-06T10:25:41.585Z,50911.32
2024-04-06T10:28:10.142Z,50932.97
2024-04-06T10:30:38.983Z,50917.23
2024-04-06T10:33:07.579Z,50909.35
2024-04-06T10:35:35.222Z,50916.44
2024-04-06T10:38:02.835Z,50913.69
2024-04-06T10:40:35.301Z,50913.29
2024-04-06T10:43:06.141Z,50921.55
2024-04-06T10:45:34.719Z,50916.04
2024-04-06T10:48:03.457Z,50904.24
2024-04-06T10:50:30.913Z,50922.74
2024-04-06T10:52:59.669Z,50935.34
2024-04-06T10:55:28.791Z,50947.93
2024-04-06T10:57:59.417Z,50962.50
2024-04-06T11:00:27.811Z,50952.66
2024-04-06T11:03:00.702Z,50954.63
2024-04-06T11:05:28.293Z,50958.16
2024-04-06T11:07:55.871Z,50953.05
2024-04-06T11:10:23.638Z,50950.29
2024-04-06T11:12:51.223Z,50967.61
2024-04-06T11:15:18.755Z,50961.32
2024-04-06T11:17:46.414Z,50983.36
2024-04-06T11:20:14.035Z,50987.70
2024-04-06T11:22:41.941Z,50998.71
2024-04-06T11:25:16.141Z,50995.56
2024-04-06T11:27:54.502Z,50995.57
2024-04-06T11:30:22.021Z,50993.99
2024-04-06T11:32:51.306Z,50982.57
2024-04-06T11:35:19.278Z,50993.99
2024-04-06T11:37:46.819Z,50981.39
2024-04-06T11:40:15.361Z,51006.59
2024-04-06T11:42:42.854Z,50993.99
2024-04-06T11:45:10.313Z,50994.77
2024-04-06T11:47:37.931Z,50999.50
2024-04-06T11:50:05.951Z,51005.80
2024-04-06T11:52:33.499Z,51004.23
2024-04-06T11:55:01.025Z,51017.22
2024-04-06T11:57:28.553Z,51010.52
2024-04-06T11:59:55.959Z,51012.89
2024-04-06T12:02:23.598Z,51032.96
2024-04-06T12:04:51.066Z,51032.18
2024-04-06T12:07:18.555Z,51026.66
2024-04-06T12:09:46.125Z,51032.96
2024-04-06T12:12:14.868Z,51043.20
2024-04-06T12:14:42.393Z,51037.69
2024-04-06T12:17:16.061Z,51021.55
2024-04-06T12:19:43.636Z,51034.54
2024-04-06T12:22:11.268Z,51036.90
2024-04-06T12:24:41.462Z,51058.55
2024-04-06T12:27:09.236Z,51045.96
2024-04-06T12:29:36.704Z,51052.65
2024-04-06T12:32:04.951Z,51048.71
2024-04-06T12:34:32.512Z,51042.80
2024-04-06T12:37:03.989Z,51046.35
2024-04-06T12:39:31.540Z,51052.64
2024-04-06T12:41:58.981Z,51054.22
2024-04-06T12:44:26.614Z,51034.14
2024-04-06T12:46:54.144Z,51039.26
2024-04-06T12:49:21.685Z,51042.41
2024-04-06T12:51:49.226Z,51055.01
2024-04-06T12:54:16.798Z,51042.80
2024-04-06T12:57:02.973Z,51048.31
2024-04-06T12:59:30.461Z,51045.17
2024-04-06T13:01:58.058Z,51064.85
2024-04-06T13:04:25.583Z,51075.88
2024-04-06T13:06:53.100Z,51060.52
2024-04-06T13:09:22.103Z,51076.66
2024-04-06T13:11:49.563Z,51078.63
2024-04-06T13:14:17.017Z,51066.43
2024-04-06T13:16:44.516Z,51073.51
2024-04-06T13:19:12.049Z,51073.12
2024-04-06T13:21:42.802Z,51072.72
2024-04-06T13:24:13.210Z,51084.93
2024-04-06T13:26:40.852Z,51091.23
2024-04-06T13:29:10.442Z,51084.54
2024-04-06T13:31:37.872Z,51094.38
2024-04-06T13:34:07.648Z,51082.57
2024-04-06T13:36:35.094Z,51085.32
2024-04-06T13:39:07.501Z,51092.41
2024-04-06T13:41:35.041Z,51075.48
2024-04-06T13:44:03.148Z,51089.65
2024-04-06T13:46:31.373Z,51089.65
2024-04-06T13:48:58.861Z,51098.31
2024-04-06T13:51:26.719Z,51095.95
2024-04-06T13:53:54.221Z,51104.22
2024-04-06T13:56:21.681Z,51077.45
2024-04-06T13:58:50.667Z,51103.04
2024-04-06T14:01:18.217Z,51098.32
2024-04-06T14:03:45.717Z,51107.37
2024-04-06T14:06:13.612Z,51112.09
2024-04-06T14:08:41.685Z,51096.74
2024-04-06T14:11:11.140Z,51103.82
2024-04-06T14:13:40.988Z,51105.01
2024-04-06T14:16:08.830Z,51100.68
2024-04-06T14:18:36.528Z,51083.35
2024-04-06T14:21:04.316Z,51099.89
2024-04-06T14:23:31.773Z,51079.02
2024-04-06T14:26:00.111Z,51097.13
2024-04-06T14:28:28.511Z,51084.93
2024-04-06T14:30:56.369Z,51105.40
2024-04-06T14:33:23.846Z,51090.84
2024-04-06T14:35:51.796Z,51091.62
2024-04-06T14:38:19.333Z,51093.20
2024-04-06T14:40:46.851Z,51112.09
2024-04-06T14:43:16.941Z,51116.82
2024-04-06T14:45:46.004Z,51111.30
2024-04-06T14:48:13.671Z,51108.55
2024-04-06T14:50:41.169Z,51096.35
2024-04-06T14:53:09.043Z,51103.82
2024-04-06T14:55:36.522Z,51106.18
2024-04-06T14:58:04.177Z,51116.43
2024-04-06T15:00:31.772Z,51103.04
2024-04-06T15:02:59.392Z,51106.19
2024-04-06T15:05:26.842Z,51103.82
2024-04-06T15:07:54.698Z,51108.95
2024-04-06T15:10:22.238Z,51105.80
2024-04-06T15:12:49.912Z,51105.40
2024-04-06T15:15:17.446Z,51110.52
2024-04-06T15:17:44.891Z,51102.25
2024-04-06T15:20:12.502Z,51100.68
2024-04-06T15:22:40.695Z,51118.00
2024-04-06T15:25:11.028Z,51112.49
2024-04-06T15:27:39.783Z,51118.00
2024-04-06T15:30:11.042Z,51099.10
2024-04-06T15:32:40.314Z,51100.68
2024-04-06T15:35:09.377Z,51105.80
2024-04-06T15:37:36.895Z,51114.45
2024-04-06T15:40:07.715Z,51110.52
2024-04-06T15:42:35.225Z,51121.94
2024-04-06T15:45:02.735Z,51112.09
2024-04-06T15:47:30.357Z,51110.13
2024-04-06T15:49:57.830Z,51127.84
2024-04-06T15:52:25.365Z,51134.93
2024-04-06T15:54:52.879Z,51126.26
2024-04-06T15:57:21.228Z,51125.88
2024-04-06T15:59:48.769Z,51121.93
2024-04-06T16:02:16.397Z,51121.15
2024-04-06T16:04:43.968Z,51127.45
2024-04-06T16:07:11.754Z,51134.93
2024-04-06T16:09:39.275Z,51130.99
2024-04-06T16:12:07.114Z,51143.20
2024-04-06T16:14:35.445Z,51126.66
2024-04-06T16:17:04.094Z,51132.57
2024-04-06T16:19:35.445Z,51135.71
2024-04-06T16:22:04.512Z,51142.80
2024-04-06T16:24:33.881Z,51137.68
2024-04-06T16:27:01.356Z,51144.77
2024-04-06T16:29:28.944Z,51155.00
2024-04-06T16:31:56.561Z,51139.26
2024-04-06T16:34:24.498Z,51141.22
2024-04-06T16:36:52.207Z,51153.43
2024-04-06T16:39:19.798Z,51138.86
2024-04-06T16:41:47.398Z,51130.20
2024-04-06T16:44:16.819Z,51155.39
2024-04-06T16:46:44.355Z,51140.83
2024-04-06T16:49:11.792Z,51146.74
2024-04-06T16:51:39.416Z,51149.49
2024-04-06T16:54:07.023Z,51132.17
2024-04-06T16:56:34.498Z,51135.32
2024-04-06T16:59:01.989Z,51149.89
2024-04-06T17:01:29.548Z,51146.34
2024-04-06T17:03:57.080Z,51146.74
2024-04-06T17:06:24.586Z,51145.95
2024-04-06T17:08:52.336Z,51141.23
2024-04-06T17:11:20.128Z,51136.11
2024-04-06T17:13:47.587Z,51127.45
2024-04-06T17:16:15.279Z,51138.47
2024-04-06T17:18:42.830Z,51129.41
2024-04-06T17:21:10.569Z,51134.93
2024-04-06T17:23:38.355Z,51127.05
2024-04-06T17:26:05.938Z,51119.97
2024-04-06T17:28:33.418Z,51130.20
2024-04-06T17:31:01.013Z,51130.20
2024-04-06T17:33:28.695Z,51126.66
2024-04-06T17:35:56.206Z,51125.48
2024-04-06T17:38:24.987Z,51132.96
2024-04-06T17:40:52.597Z,51127.05
2024-04-06T17:43:23.051Z,51135.71
2024-04-06T17:45:50.536Z,51148.71
2024-04-06T17:48:18.058Z,51129.41
2024-04-06T17:50:45.521Z,51151.86
2024-04-06T17:53:12.965Z,51141.62
2024-04-06T17:55:41.094Z,51136.11
2024-04-06T17:58:13.989Z,51156.97
2024-04-06T18:00:50.618Z,51148.31
2024-04-06T18:03:19.757Z,51159.33
2024-04-06T18:05:47.814Z,51158.94
2024-04-06T18:08:15.377Z,51155.01
2024-04-06T18:10:42.851Z,51149.49
2024-04-06T18:13:10.575Z,51139.65
2024-04-06T18:15:38.177Z,51145.95
2024-04-06T18:18:05.774Z,51143.20
2024-04-06T18:20:33.404Z,51155.79
2024-04-06T18:23:00.894Z,51153.82
2024-04-06T18:25:28.422Z,51163.27
2024-04-06T18:27:55.866Z,51156.97
2024-04-06T18:30:23.320Z,51159.73
2024-04-06T18:32:50.926Z,51155.00
2024-04-06T18:35:18.537Z,51155.79
2024-04-06T18:37:46.100Z,51158.94
2024-04-06T18:40:13.963Z,51154.22
2024-04-06T18:42:42.961Z,51151.86
2024-04-06T18:45:13.233Z,51154.61
2024-04-06T18:47:42.220Z,51149.49
2024-04-06T18:50:10.029Z,51157.37
2024-04-06T18:52:37.546Z,51148.30
2024-04-06T18:55:05.567Z,51157.37
2024-04-06T18:57:33.027Z,51153.03
2024-04-06T19:00:01.458Z,51171.54
2024-04-06T19:02:28.952Z,51151.46
2024-04-06T19:04:56.527Z,51147.92
2024-04-06T19:07:24.586Z,51148.71
2024-04-06T19:09:52.049Z,51161.70
2024-04-06T19:12:19.910Z,51162.09
2024-04-06T19:14:47.374Z,51155.39
2024-04-06T19:17:14.902Z,51155.01
2024-04-06T19:19:43.099Z,51158.54
2024-04-06T19:22:10.645Z,51160.51
2024-04-06T19:24:38.267Z,51149.88
2024-04-06T19:27:05.759Z,51151.46
2024-04-06T19:29:33.197Z,51152.64
2024-04-06T19:32:00.692Z,51142.41
2024-04-06T19:34:28.208Z,51155.00
2024-04-06T19:36:55.721Z,51148.31
2024-04-06T19:39:23.315Z,51157.76
2024-04-06T19:41:50.812Z,51169.18
2024-04-06T19:44:18.447Z,51173.90
2024-04-06T19:46:49.575Z,51154.21
2024-04-06T19:49:17.321Z,51164.45
2024-04-06T19:51:44.902Z,51160.12
2024-04-06T19:54:12.403Z,51173.11
2024-04-06T19:56:39.925Z,51175.08
2024-04-06T19:59:07.370Z,51179.41
2024-04-06T20:01:34.922Z,51162.09
2024-04-06T20:04:02.662Z,51167.21
2024-04-06T20:06:30.892Z,51160.12
2024-04-06T20:09:17.019Z,51165.63
2024-04-06T20:11:44.585Z,51172.72
2024-04-06T20:14:12.194Z,51164.45
2024-04-06T20:16:39.757Z,51176.26
2024-04-06T20:19:07.711Z,51161.70
2024-04-06T20:21:35.429Z,51172.72
2024-04-06T20:24:21.699Z,51173.90
2024-04-06T20:26:49.396Z,51174.29
2024-04-06T20:29:17.012Z,51166.02
2024-04-06T20:31:44.581Z,51171.14
2024-04-06T20:34:12.292Z,51180.20
2024-04-06T20:36:40.188Z,51168.39
2024-04-06T20:39:10.609Z,51181.38
2024-04-06T20:41:38.095Z,51183.35
2024-04-06T20:44:05.657Z,51167.21
2024-04-06T20:46:33.237Z,51184.14
2024-04-06T20:49:00.785Z,51185.32
2024-04-06T20:51:28.269Z,51186.50
2024-04-06T20:53:55.696Z,51180.98
2024-04-06T20:56:23.455Z,51184.53
2024-04-06T20:58:50.972Z,51179.80
2024-04-06T21:01:18.477Z,51184.14
2024-04-06T21:03:46.024Z,51204.21
2024-04-06T21:06:13.548Z,51206.97
2024-04-06T21:08:44.802Z,51193.98
2024-04-06T21:11:12.336Z,51182.96
2024-04-06T21:13:39.881Z,51195.95
2024-04-06T21:16:07.339Z,51201.85
2024-04-06T21:18:35.552Z,51192.80
2024-04-06T21:21:03.131Z,51199.10
2024-04-06T21:23:30.577Z,51187.68
2024-04-06T21:26:01.609Z,51189.25
2024-04-06T21:28:29.755Z,51188.47
2024-04-06T21:30:58.034Z,51177.05
2024-04-06T21:33:25.681Z,51193.20
2024-04-06T21:35:53.235Z,51203.03
2024-04-06T21:38:21.024Z,51200.68
2024-04-06T21:40:48.522Z,51197.91
2024-04-06T21:43:16.009Z,51211.30
2024-04-06T21:45:43.401Z,51206.19
2024-04-06T21:48:10.884Z,51190.44
2024-04-06T21:50:38.291Z,51209.73
2024-04-06T21:53:05.752Z,51211.70
2024-04-06T21:55:33.570Z,51212.09
2024-04-06T21:58:00.982Z,51193.98
2024-04-06T22:00:30.155Z,51203.43
2024-04-06T22:02:57.578Z,51196.34
2024-04-06T22:05:26.629Z,51203.43
2024-04-06T22:07:54.107Z,51206.58
2024-04-06T22:10:21.545Z,51197.13
2024-04-06T22:12:48.987Z,51226.66
2024-04-06T22:15:16.486Z,51204.61
2024-04-06T22:17:43.978Z,51203.03
2024-04-06T22:20:11.938Z,51204.21
2024-04-06T22:22:39.427Z,51216.02
2024-04-06T22:25:07.302Z,51211.30
2024-04-06T22:27:34.765Z,51210.12
2024-04-06T22:30:06.707Z,51195.95
2024-04-06T22:32:34.240Z,51206.97
2024-04-06T22:35:01.741Z,51209.33
2024-04-06T22:37:31.960Z,51213.66
2024-04-06T22:39:59.337Z,51209.33
2024-04-06T22:42:27.621Z,51195.95
2024-04-06T22:44:55.070Z,51215.63
2024-04-06T22:47:22.515Z,51193.98
2024-04-06T22:49:51.996Z,51209.33
2024-04-06T22:52:19.431Z,51218.78
2024-04-06T22:54:46.880Z,51218.39
2024-04-06T22:57:14.369Z,51220.75
2024-04-06T22:59:42.405Z,51220.75
2024-04-06T23:02:09.830Z,51229.41
2024-04-06T23:04:37.341Z,51212.09
2024-04-06T23:07:04.998Z,51225.08
2024-04-06T23:09:32.531Z,51204.21
2024-04-06T23:11:59.972Z,51212.09
2024-04-06T23:14:27.407Z,51208.94
2024-04-06T23:16:55.166Z,51209.33
2024-04-06T23:19:22.678Z,51201.85
2024-04-06T23:21:50.163Z,51217.60
2024-04-06T23:24:17.542Z,51230.20
2024-04-06T23:26:45.331Z,51218.39
2024-04-06T23:29:12.911Z,51206.97
2024-04-06T23:31:41.081Z,51213.66
2024-04-06T23:34:08.479Z,51216.02
2024-04-06T23:36:36.465Z,51214.45
2024-04-06T23:39:06.431Z,51217.99
2024-04-06T23:41:33.846Z,51224.68
2024-04-06T23:44:01.556Z,51225.87
2024-04-06T23:46:29.192Z,51226.65
2024-04-06T23:48:56.614Z,51222.32
2024-04-06T23:51:24.027Z,51228.62
2024-04-06T23:53:51.491Z,51216.02
2024-04-06T23:56:18.943Z,51214.84
2024-04-06T23:58:46.440Z,51220.75
